sensor_id;sensor_type;location;lat;lon;timestamp;P1;durP1;ratioP1;P2;durP2;ratioP2
76157;SDS011;64907;51.574;6.502;2023-06-10T00:01:06;8.37;;;7.57;;
76157;SDS011;64907;51.574;6.502;2023-06-10T00:03:33;8.17;;;7.57;;
76157;SDS011;64907;51.574;6.502;2023-06-10T00:05:58;7.25;;;6.60;;
76157;SDS011;64907;51.574;6.502;2023-06-10T00:08:23;8.20;;;7.60;;
76157;SDS011;64907;51.574;6.502;2023-06-10T00:10:49;7.72;;;7.05;;
76157;SDS011;64907;51.574;6.502;2023-06-10T00:13:15;7.32;;;6.78;;
76157;SDS011;64907;51.574;6.502;2023-06-10T00:15:42;7.97;;;7.25;;
76157;SDS011;64907;51.574;6.502;2023-06-10T00:18:07;7.63;;;6.75;;
76157;SDS011;64907;51.574;6.502;2023-06-10T00:20:34;7.90;;;7.22;;
76157;SDS011;64907;51.574;6.502;2023-06-10T00:23:01;8.25;;;7.57;;
76157;SDS011;64907;51.574;6.502;2023-06-10T00:25:26;8.40;;;7.60;;
76157;SDS011;64907;51.574;6.502;2023-06-10T00:27:51;8.60;;;7.80;;
76157;SDS011;64907;51.574;6.502;2023-06-10T00:30:16;9.17;;;7.87;;
76157;SDS011;64907;51.574;6.502;2023-06-10T00:32:42;8.75;;;8.00;;
76157;SDS011;64907;51.574;6.502;2023-06-10T00:35:07;8.50;;;7.90;;
76157;SDS011;64907;51.574;6.502;2023-06-10T00:37:38;8.95;;;8.13;;
76157;SDS011;64907;51.574;6.502;2023-06-10T00:40:04;7.88;;;7.07;;
76157;SDS011;64907;51.574;6.502;2023-06-10T00:42:29;9.13;;;8.32;;
76157;SDS011;64907;51.574;6.502;2023-06-10T00:45:02;8.90;;;8.20;;
76157;SDS011;64907;51.574;6.502;2023-06-10T00:47:28;9.57;;;8.45;;
76157;SDS011;64907;51.574;6.502;2023-06-10T00:49:53;9.43;;;8.65;;
76157;SDS011;64907;51.574;6.502;2023-06-10T00:52:19;9.02;;;8.23;;
76157;SDS011;64907;51.574;6.502;2023-06-10T00:54:45;9.60;;;8.80;;
76157;SDS011;64907;51.574;6.502;2023-06-10T00:57:10;9.77;;;8.98;;
76157;SDS011;64907;51.574;6.502;2023-06-10T00:59:37;9.32;;;8.65;;
76157;SDS011;64907;51.574;6.502;2023-06-10T01:02:05;9.57;;;8.63;;
76157;SDS011;64907;51.574;6.502;2023-06-10T01:07:14;11.68;;;9.25;;
76157;SDS011;64907;51.574;6.502;2023-06-10T01:12:29;10.40;;;9.48;;
76157;SDS011;64907;51.574;6.502;2023-06-10T01:14:55;9.85;;;9.10;;
76157;SDS011;64907;51.574;6.502;2023-06-10T01:17:21;10.68;;;9.73;;
76157;SDS011;64907;51.574;6.502;2023-06-10T01:19:54;10.73;;;9.77;;
76157;SDS011;64907;51.574;6.502;2023-06-10T01:22:23;11.57;;;10.48;;
76157;SDS011;64907;51.574;6.502;2023-06-10T01:24:48;10.70;;;9.80;;
76157;SDS011;64907;51.574;6.502;2023-06-10T01:27:15;10.93;;;9.93;;
76157;SDS011;64907;51.574;6.502;2023-06-10T01:29:46;11.55;;;10.55;;
76157;SDS011;64907;51.574;6.502;2023-06-10T01:34:39;10.85;;;9.48;;
76157;SDS011;64907;51.574;6.502;2023-06-10T01:37:05;12.25;;;9.85;;
76157;SDS011;64907;51.574;6.502;2023-06-10T01:39:31;11.60;;;10.55;;
76157;SDS011;64907;51.574;6.502;2023-06-10T01:41:57;10.98;;;9.85;;
76157;SDS011;64907;51.574;6.502;2023-06-10T01:44:22;11.40;;;10.30;;
76157;SDS011;64907;51.574;6.502;2023-06-10T01:46:49;11.02;;;9.93;;
76157;SDS011;64907;51.574;6.502;2023-06-10T01:49:14;13.60;;;10.75;;
76157;SDS011;64907;51.574;6.502;2023-06-10T01:51:39;11.63;;;10.55;;
76157;SDS011;64907;51.574;6.502;2023-06-10T01:54:05;12.32;;;11.38;;
76157;SDS011;64907;51.574;6.502;2023-06-10T01:56:31;11.77;;;10.75;;
76157;SDS011;64907;51.574;6.502;2023-06-10T01:58:56;12.30;;;11.18;;
76157;SDS011;64907;51.574;6.502;2023-06-10T02:01:24;11.60;;;10.48;;
76157;SDS011;64907;51.574;6.502;2023-06-10T02:06:19;13.38;;;11.77;;
76157;SDS011;64907;51.574;6.502;2023-06-10T02:08:45;13.25;;;11.68;;
76157;SDS011;64907;51.574;6.502;2023-06-10T02:13:39;11.68;;;10.75;;
76157;SDS011;64907;51.574;6.502;2023-06-10T02:16:04;12.05;;;11.02;;
76157;SDS011;64907;51.574;6.502;2023-06-10T02:18:30;11.30;;;10.30;;
76157;SDS011;64907;51.574;6.502;2023-06-10T02:20:56;12.10;;;11.03;;
76157;SDS011;64907;51.574;6.502;2023-06-10T02:23:21;11.77;;;10.67;;
76157;SDS011;64907;51.574;6.502;2023-06-10T02:25:46;12.13;;;11.00;;
76157;SDS011;64907;51.574;6.502;2023-06-10T02:28:13;12.35;;;11.25;;
76157;SDS011;64907;51.574;6.502;2023-06-10T02:30:39;12.13;;;10.95;;
76157;SDS011;64907;51.574;6.502;2023-06-10T02:33:04;12.85;;;11.80;;
76157;SDS011;64907;51.574;6.502;2023-06-10T02:37:59;13.57;;;12.35;;
76157;SDS011;64907;51.574;6.502;2023-06-10T02:40:27;12.27;;;11.27;;
76157;SDS011;64907;51.574;6.502;2023-06-10T02:42:52;12.75;;;11.55;;
76157;SDS011;64907;51.574;6.502;2023-06-10T02:45:23;13.75;;;12.55;;
76157;SDS011;64907;51.574;6.502;2023-06-10T02:47:48;13.20;;;12.00;;
76157;SDS011;64907;51.574;6.502;2023-06-10T02:50:13;12.80;;;11.50;;
76157;SDS011;64907;51.574;6.502;2023-06-10T02:52:38;13.60;;;12.38;;
76157;SDS011;64907;51.574;6.502;2023-06-10T02:55:04;16.77;;;12.40;;
76157;SDS011;64907;51.574;6.502;2023-06-10T02:59:59;13.32;;;11.88;;
76157;SDS011;64907;51.574;6.502;2023-06-10T03:02:24;13.70;;;12.00;;
76157;SDS011;64907;51.574;6.502;2023-06-10T03:04:54;13.25;;;11.98;;
76157;SDS011;64907;51.574;6.502;2023-06-10T03:07:20;12.30;;;11.10;;
76157;SDS011;64907;51.574;6.502;2023-06-10T03:09:45;13.00;;;11.98;;
76157;SDS011;64907;51.574;6.502;2023-06-10T03:12:10;13.07;;;11.93;;
76157;SDS011;64907;51.574;6.502;2023-06-10T03:14:36;14.60;;;12.15;;
76157;SDS011;64907;51.574;6.502;2023-06-10T03:17:02;13.55;;;12.35;;
76157;SDS011;64907;51.574;6.502;2023-06-10T03:19:28;12.50;;;11.35;;
76157;SDS011;64907;51.574;6.502;2023-06-10T03:22:07;14.07;;;12.27;;
76157;SDS011;64907;51.574;6.502;2023-06-10T03:27:11;13.05;;;11.75;;
76157;SDS011;64907;51.574;6.502;2023-06-10T03:29:37;14.27;;;11.03;;
76157;SDS011;64907;51.574;6.502;2023-06-10T03:32:11;13.25;;;11.70;;
76157;SDS011;64907;51.574;6.502;2023-06-10T03:34:36;14.20;;;12.30;;
76157;SDS011;64907;51.574;6.502;2023-06-10T03:39:32;12.80;;;11.20;;
76157;SDS011;64907;51.574;6.502;2023-06-10T03:41:57;12.30;;;11.10;;
76157;SDS011;64907;51.574;6.502;2023-06-10T03:44:23;12.27;;;11.07;;
76157;SDS011;64907;51.574;6.502;2023-06-10T03:46:49;12.20;;;11.15;;
76157;SDS011;64907;51.574;6.502;2023-06-10T03:51:51;12.02;;;10.88;;
76157;SDS011;64907;51.574;6.502;2023-06-10T03:54:16;11.90;;;10.77;;
76157;SDS011;64907;51.574;6.502;2023-06-10T03:56:41;13.03;;;11.27;;
76157;SDS011;64907;51.574;6.502;2023-06-10T03:59:06;11.63;;;10.55;;
76157;SDS011;64907;51.574;6.502;2023-06-10T04:01:31;11.88;;;10.55;;
76157;SDS011;64907;51.574;6.502;2023-06-10T04:03:56;11.07;;;9.97;;
76157;SDS011;64907;51.574;6.502;2023-06-10T04:06:21;11.33;;;10.33;;
76157;SDS011;64907;51.574;6.502;2023-06-10T04:08:47;11.43;;;10.20;;
76157;SDS011;64907;51.574;6.502;2023-06-10T04:11:13;12.13;;;9.80;;
76157;SDS011;64907;51.574;6.502;2023-06-10T04:13:38;11.63;;;10.52;;
76157;SDS011;64907;51.574;6.502;2023-06-10T04:16:03;10.87;;;9.70;;
76157;SDS011;64907;51.574;6.502;2023-06-10T04:18:28;12.52;;;9.73;;
76157;SDS011;64907;51.574;6.502;2023-06-10T04:20:54;11.37;;;10.00;;
76157;SDS011;64907;51.574;6.502;2023-06-10T04:23:26;10.50;;;9.55;;
76157;SDS011;64907;51.574;6.502;2023-06-10T04:25:51;10.30;;;9.30;;
76157;SDS011;64907;51.574;6.502;2023-06-10T04:30:46;10.80;;;9.70;;
76157;SDS011;64907;51.574;6.502;2023-06-10T04:33:11;10.40;;;9.50;;
76157;SDS011;64907;51.574;6.502;2023-06-10T04:35:36;12.63;;;9.57;;
76157;SDS011;64907;51.574;6.502;2023-06-10T04:38:01;10.45;;;9.55;;
76157;SDS011;64907;51.574;6.502;2023-06-10T04:40:42;9.82;;;8.85;;
76157;SDS011;64907;51.574;6.502;2023-06-10T04:43:07;9.85;;;8.73;;
76157;SDS011;64907;51.574;6.502;2023-06-10T04:45:32;9.30;;;8.35;;
76157;SDS011;64907;51.574;6.502;2023-06-10T04:47:58;9.13;;;8.27;;
76157;SDS011;64907;51.574;6.502;2023-06-10T04:50:23;8.90;;;8.20;;
76157;SDS011;64907;51.574;6.502;2023-06-10T04:52:48;8.50;;;7.85;;
76157;SDS011;64907;51.574;6.502;2023-06-10T04:55:14;8.98;;;8.18;;
76157;SDS011;64907;51.574;6.502;2023-06-10T04:57:39;8.80;;;7.93;;
76157;SDS011;64907;51.574;6.502;2023-06-10T05:00:05;10.50;;;7.57;;
76157;SDS011;64907;51.574;6.502;2023-06-10T05:05:24;8.35;;;7.53;;
76157;SDS011;64907;51.574;6.502;2023-06-10T05:07:49;8.98;;;8.10;;
76157;SDS011;64907;51.574;6.502;2023-06-10T05:10:18;8.83;;;7.93;;
76157;SDS011;64907;51.574;6.502;2023-06-10T05:12:43;8.40;;;7.60;;
76157;SDS011;64907;51.574;6.502;2023-06-10T05:15:08;8.05;;;7.25;;
76157;SDS011;64907;51.574;6.502;2023-06-10T05:17:34;9.50;;;8.55;;
76157;SDS011;64907;51.574;6.502;2023-06-10T05:20:02;10.18;;;7.72;;
76157;SDS011;64907;51.574;6.502;2023-06-10T05:22:27;9.65;;;8.30;;
76157;SDS011;64907;51.574;6.502;2023-06-10T05:24:53;8.63;;;7.50;;
76157;SDS011;64907;51.574;6.502;2023-06-10T05:29:55;9.05;;;8.15;;
76157;SDS011;64907;51.574;6.502;2023-06-10T05:32:23;8.60;;;7.88;;
76157;SDS011;64907;51.574;6.502;2023-06-10T05:37:41;8.70;;;7.90;;
76157;SDS011;64907;51.574;6.502;2023-06-10T05:40:06;9.18;;;8.20;;
76157;SDS011;64907;51.574;6.502;2023-06-10T05:42:31;9.43;;;8.13;;
76157;SDS011;64907;51.574;6.502;2023-06-10T05:44:57;8.43;;;7.40;;
76157;SDS011;64907;51.574;6.502;2023-06-10T05:47:22;8.93;;;7.63;;
76157;SDS011;64907;51.574;6.502;2023-06-10T05:49:47;7.93;;;7.20;;
76157;SDS011;64907;51.574;6.502;2023-06-10T05:52:30;8.23;;;7.47;;
76157;SDS011;64907;51.574;6.502;2023-06-10T05:54:55;7.78;;;7.03;;
76157;SDS011;64907;51.574;6.502;2023-06-10T05:57:20;12.07;;;7.03;;
76157;SDS011;64907;51.574;6.502;2023-06-10T05:59:46;7.55;;;6.75;;
76157;SDS011;64907;51.574;6.502;2023-06-10T06:02:14;7.60;;;6.93;;
76157;SDS011;64907;51.574;6.502;2023-06-10T06:04:41;7.65;;;7.00;;
76157;SDS011;64907;51.574;6.502;2023-06-10T06:07:06;8.75;;;7.65;;
76157;SDS011;64907;51.574;6.502;2023-06-10T06:12:15;7.90;;;7.13;;
76157;SDS011;64907;51.574;6.502;2023-06-10T06:17:10;9.02;;;6.90;;
76157;SDS011;64907;51.574;6.502;2023-06-10T06:19:35;9.48;;;6.68;;
76157;SDS011;64907;51.574;6.502;2023-06-10T06:22:09;9.40;;;6.83;;
76157;SDS011;64907;51.574;6.502;2023-06-10T06:24:35;11.73;;;6.85;;
76157;SDS011;64907;51.574;6.502;2023-06-10T06:27:00;7.57;;;6.87;;
76157;SDS011;64907;51.574;6.502;2023-06-10T06:29:25;7.97;;;7.17;;
76157;SDS011;64907;51.574;6.502;2023-06-10T06:31:50;7.13;;;6.32;;
76157;SDS011;64907;51.574;6.502;2023-06-10T06:34:18;7.43;;;6.73;;
76157;SDS011;64907;51.574;6.502;2023-06-10T06:36:45;7.32;;;6.53;;
76157;SDS011;64907;51.574;6.502;2023-06-10T06:39:11;6.78;;;6.18;;
76157;SDS011;64907;51.574;6.502;2023-06-10T06:41:36;7.45;;;6.68;;
76157;SDS011;64907;51.574;6.502;2023-06-10T06:44:07;10.17;;;6.30;;
76157;SDS011;64907;51.574;6.502;2023-06-10T06:46:40;8.75;;;7.03;;
76157;SDS011;64907;51.574;6.502;2023-06-10T06:49:05;8.32;;;7.43;;
76157;SDS011;64907;51.574;6.502;2023-06-10T06:51:30;6.63;;;6.03;;
76157;SDS011;64907;51.574;6.502;2023-06-10T06:53:58;8.07;;;7.00;;
76157;SDS011;64907;51.574;6.502;2023-06-10T06:56:25;8.70;;;6.82;;
76157;SDS011;64907;51.574;6.502;2023-06-10T06:58:53;6.43;;;5.90;;
76157;SDS011;64907;51.574;6.502;2023-06-10T07:01:18;7.15;;;6.43;;
76157;SDS011;64907;51.574;6.502;2023-06-10T07:03:44;6.82;;;6.30;;
76157;SDS011;64907;51.574;6.502;2023-06-10T07:06:15;7.00;;;6.30;;
76157;SDS011;64907;51.574;6.502;2023-06-10T07:08:40;7.10;;;6.45;;
76157;SDS011;64907;51.574;6.502;2023-06-10T07:11:06;6.30;;;5.83;;
76157;SDS011;64907;51.574;6.502;2023-06-10T07:16:02;6.63;;;6.03;;
76157;SDS011;64907;51.574;6.502;2023-06-10T07:18:29;6.90;;;5.90;;
76157;SDS011;64907;51.574;6.502;2023-06-10T07:20:54;7.50;;;6.45;;
76157;SDS011;64907;51.574;6.502;2023-06-10T07:23:23;7.32;;;6.68;;
76157;SDS011;64907;51.574;6.502;2023-06-10T07:25:48;7.32;;;6.55;;
76157;SDS011;64907;51.574;6.502;2023-06-10T07:28:13;6.63;;;5.97;;
76157;SDS011;64907;51.574;6.502;2023-06-10T07:30:38;8.93;;;6.00;;
76157;SDS011;64907;51.574;6.502;2023-06-10T07:38:22;6.72;;;5.63;;
76157;SDS011;64907;51.574;6.502;2023-06-10T07:40:47;8.10;;;5.40;;
76157;SDS011;64907;51.574;6.502;2023-06-10T07:45:52;9.43;;;5.53;;
76157;SDS011;64907;51.574;6.502;2023-06-10T07:48:19;7.13;;;5.57;;
76157;SDS011;64907;51.574;6.502;2023-06-10T07:50:44;6.05;;;5.55;;
76157;SDS011;64907;51.574;6.502;2023-06-10T07:53:10;7.00;;;5.65;;
76157;SDS011;64907;51.574;6.502;2023-06-10T07:55:44;5.60;;;5.20;;
76157;SDS011;64907;51.574;6.502;2023-06-10T07:58:11;6.18;;;5.47;;
76157;SDS011;64907;51.574;6.502;2023-06-10T08:00:36;5.97;;;4.90;;
76157;SDS011;64907;51.574;6.502;2023-06-10T08:03:02;6.38;;;5.88;;
76157;SDS011;64907;51.574;6.502;2023-06-10T08:05:30;5.93;;;5.53;;
76157;SDS011;64907;51.574;6.502;2023-06-10T08:07:56;6.57;;;5.97;;
76157;SDS011;64907;51.574;6.502;2023-06-10T08:10:30;5.30;;;5.00;;
76157;SDS011;64907;51.574;6.502;2023-06-10T08:12:57;10.73;;;5.88;;
76157;SDS011;64907;51.574;6.502;2023-06-10T08:15:23;5.15;;;4.85;;
76157;SDS011;64907;51.574;6.502;2023-06-10T08:17:48;7.10;;;5.82;;
76157;SDS011;64907;51.574;6.502;2023-06-10T08:20:13;7.13;;;5.93;;
76157;SDS011;64907;51.574;6.502;2023-06-10T08:22:39;6.70;;;5.87;;
76157;SDS011;64907;51.574;6.502;2023-06-10T08:25:05;6.72;;;6.10;;
76157;SDS011;64907;51.574;6.502;2023-06-10T08:27:30;6.80;;;5.88;;
76157;SDS011;64907;51.574;6.502;2023-06-10T08:29:58;6.13;;;5.63;;
76157;SDS011;64907;51.574;6.502;2023-06-10T08:32:25;6.38;;;5.88;;
76157;SDS011;64907;51.574;6.502;2023-06-10T08:34:59;7.10;;;6.40;;
76157;SDS011;64907;51.574;6.502;2023-06-10T08:37:25;7.68;;;6.20;;
76157;SDS011;64907;51.574;6.502;2023-06-10T08:39:50;6.70;;;5.60;;
76157;SDS011;64907;51.574;6.502;2023-06-10T08:44:52;6.60;;;6.05;;
76157;SDS011;64907;51.574;6.502;2023-06-10T08:47:18;6.95;;;6.25;;
76157;SDS011;64907;51.574;6.502;2023-06-10T08:49:45;7.28;;;6.20;;
76157;SDS011;64907;51.574;6.502;2023-06-10T08:52:14;6.32;;;5.72;;
76157;SDS011;64907;51.574;6.502;2023-06-10T08:54:40;9.00;;;6.32;;
76157;SDS011;64907;51.574;6.502;2023-06-10T08:57:09;6.25;;;5.60;;
76157;SDS011;64907;51.574;6.502;2023-06-10T08:59:34;7.05;;;5.63;;
76157;SDS011;64907;51.574;6.502;2023-06-10T09:02:00;8.37;;;5.97;;
76157;SDS011;64907;51.574;6.502;2023-06-10T09:07:04;6.28;;;5.68;;
76157;SDS011;64907;51.574;6.502;2023-06-10T09:09:30;6.20;;;5.65;;
76157;SDS011;64907;51.574;6.502;2023-06-10T09:14:26;6.10;;;5.70;;
76157;SDS011;64907;51.574;6.502;2023-06-10T09:16:52;7.28;;;6.13;;
76157;SDS011;64907;51.574;6.502;2023-06-10T09:19:21;7.28;;;6.05;;
76157;SDS011;64907;51.574;6.502;2023-06-10T09:21:46;6.97;;;6.10;;
76157;SDS011;64907;51.574;6.502;2023-06-10T09:24:12;7.13;;;6.57;;
76157;SDS011;64907;51.574;6.502;2023-06-10T09:26:37;6.77;;;6.10;;
76157;SDS011;64907;51.574;6.502;2023-06-10T09:29:03;9.90;;;6.83;;
76157;SDS011;64907;51.574;6.502;2023-06-10T09:31:30;7.78;;;6.05;;
76157;SDS011;64907;51.574;6.502;2023-06-10T09:34:17;6.53;;;6.05;;
76157;SDS011;64907;51.574;6.502;2023-06-10T09:36:42;7.18;;;6.43;;
76157;SDS011;64907;51.574;6.502;2023-06-10T09:39:14;8.45;;;7.13;;
76157;SDS011;64907;51.574;6.502;2023-06-10T09:41:42;9.30;;;6.55;;
76157;SDS011;64907;51.574;6.502;2023-06-10T09:44:18;8.48;;;6.75;;
76157;SDS011;64907;51.574;6.502;2023-06-10T09:46:47;7.20;;;6.60;;
76157;SDS011;64907;51.574;6.502;2023-06-10T09:49:16;6.82;;;6.32;;
76157;SDS011;64907;51.574;6.502;2023-06-10T09:54:25;6.88;;;6.28;;
76157;SDS011;64907;51.574;6.502;2023-06-10T09:56:56;7.30;;;6.70;;
76157;SDS011;64907;51.574;6.502;2023-06-10T09:59:29;7.70;;;7.00;;
76157;SDS011;64907;51.574;6.502;2023-06-10T10:01:57;7.60;;;6.93;;
76157;SDS011;64907;51.574;6.502;2023-06-10T10:06:51;6.82;;;6.20;;
76157;SDS011;64907;51.574;6.502;2023-06-10T10:09:17;7.97;;;7.20;;
76157;SDS011;64907;51.574;6.502;2023-06-10T10:11:42;7.00;;;6.50;;
76157;SDS011;64907;51.574;6.502;2023-06-10T10:14:08;7.20;;;6.70;;
76157;SDS011;64907;51.574;6.502;2023-06-10T10:16:35;7.32;;;6.80;;
76157;SDS011;64907;51.574;6.502;2023-06-10T10:21:47;10.30;;;7.28;;
76157;SDS011;64907;51.574;6.502;2023-06-10T10:24:18;7.00;;;6.60;;
76157;SDS011;64907;51.574;6.502;2023-06-10T10:26:43;7.20;;;6.70;;
76157;SDS011;64907;51.574;6.502;2023-06-10T10:29:36;7.80;;;7.30;;
76157;SDS011;64907;51.574;6.502;2023-06-10T10:31:58;7.75;;;7.03;;
76157;SDS011;64907;51.574;6.502;2023-06-10T10:37:01;8.52;;;6.82;;
76157;SDS011;64907;51.574;6.502;2023-06-10T10:39:26;7.40;;;6.82;;
76157;SDS011;64907;51.574;6.502;2023-06-10T10:41:53;8.57;;;7.82;;
76157;SDS011;64907;51.574;6.502;2023-06-10T10:44:22;8.02;;;7.38;;
76157;SDS011;64907;51.574;6.502;2023-06-10T10:46:50;7.97;;;7.20;;
76157;SDS011;64907;51.574;6.502;2023-06-10T10:49:17;8.10;;;7.50;;
76157;SDS011;64907;51.574;6.502;2023-06-10T10:51:55;7.38;;;6.88;;
76157;SDS011;64907;51.574;6.502;2023-06-10T10:54:27;8.05;;;7.50;;
76157;SDS011;64907;51.574;6.502;2023-06-10T11:02:16;8.40;;;7.75;;
76157;SDS011;64907;51.574;6.502;2023-06-10T11:07:24;11.90;;;8.30;;
76157;SDS011;64907;51.574;6.502;2023-06-10T11:15:25;7.65;;;7.05;;
76157;SDS011;64907;51.574;6.502;2023-06-10T11:28:41;7.57;;;6.95;;
76157;SDS011;64907;51.574;6.502;2023-06-10T11:31:18;7.97;;;7.45;;
76157;SDS011;64907;51.574;6.502;2023-06-10T11:34:04;7.80;;;7.20;;
76157;SDS011;64907;51.574;6.502;2023-06-10T11:36:30;8.90;;;7.30;;
76157;SDS011;64907;51.574;6.502;2023-06-10T11:38:59;8.82;;;7.82;;
76157;SDS011;64907;51.574;6.502;2023-06-10T11:41:25;8.27;;;7.22;;
76157;SDS011;64907;51.574;6.502;2023-06-10T11:43:53;8.05;;;7.35;;
76157;SDS011;64907;51.574;6.502;2023-06-10T11:46:24;10.05;;;7.35;;
76157;SDS011;64907;51.574;6.502;2023-06-10T11:49:08;7.85;;;7.32;;
76157;SDS011;64907;51.574;6.502;2023-06-10T11:56:57;8.02;;;7.35;;
76157;SDS011;64907;51.574;6.502;2023-06-10T11:59:26;7.95;;;7.28;;
76157;SDS011;64907;51.574;6.502;2023-06-10T12:04:21;8.50;;;7.55;;
76157;SDS011;64907;51.574;6.502;2023-06-10T12:06:53;7.88;;;7.28;;
76157;SDS011;64907;51.574;6.502;2023-06-10T12:11:48;9.00;;;7.32;;
76157;SDS011;64907;51.574;6.502;2023-06-10T12:14:13;8.13;;;7.53;;
76157;SDS011;64907;51.574;6.502;2023-06-10T12:16:48;9.13;;;7.33;;
76157;SDS011;64907;51.574;6.502;2023-06-10T12:19:13;8.00;;;7.30;;
76157;SDS011;64907;51.574;6.502;2023-06-10T12:21:47;8.20;;;7.50;;
76157;SDS011;64907;51.574;6.502;2023-06-10T12:24:12;8.15;;;7.43;;
76157;SDS011;64907;51.574;6.502;2023-06-10T12:26:39;8.13;;;7.53;;
76157;SDS011;64907;51.574;6.502;2023-06-10T12:29:21;7.43;;;6.80;;
76157;SDS011;64907;51.574;6.502;2023-06-10T12:31:54;7.55;;;6.95;;
76157;SDS011;64907;51.574;6.502;2023-06-10T12:34:27;7.80;;;7.10;;
76157;SDS011;64907;51.574;6.502;2023-06-10T12:36:52;8.52;;;7.72;;
76157;SDS011;64907;51.574;6.502;2023-06-10T12:39:36;7.55;;;6.95;;
76157;SDS011;64907;51.574;6.502;2023-06-10T12:44:38;7.03;;;6.63;;
76157;SDS011;64907;51.574;6.502;2023-06-10T12:47:10;8.02;;;7.32;;
76157;SDS011;64907;51.574;6.502;2023-06-10T12:49:41;7.40;;;6.80;;
76157;SDS011;64907;51.574;6.502;2023-06-10T12:52:13;7.35;;;6.85;;
76157;SDS011;64907;51.574;6.502;2023-06-10T12:54:43;7.25;;;6.85;;
76157;SDS011;64907;51.574;6.502;2023-06-10T12:57:08;7.05;;;6.55;;
76157;SDS011;64907;51.574;6.502;2023-06-10T12:59:35;7.72;;;6.85;;
76157;SDS011;64907;51.574;6.502;2023-06-10T13:02:02;7.60;;;6.78;;
76157;SDS011;64907;51.574;6.502;2023-06-10T13:04:27;8.27;;;7.43;;
76157;SDS011;64907;51.574;6.502;2023-06-10T13:06:52;7.27;;;6.87;;
76157;SDS011;64907;51.574;6.502;2023-06-10T13:11:46;6.95;;;6.45;;
76157;SDS011;64907;51.574;6.502;2023-06-10T13:14:12;7.53;;;6.90;;
76157;SDS011;64907;51.574;6.502;2023-06-10T13:16:38;7.83;;;7.10;;
76157;SDS011;64907;51.574;6.502;2023-06-10T13:24:06;9.10;;;6.88;;
76157;SDS011;64907;51.574;6.502;2023-06-10T13:26:35;7.35;;;6.95;;
76157;SDS011;64907;51.574;6.502;2023-06-10T13:31:57;7.75;;;7.05;;
76157;SDS011;64907;51.574;6.502;2023-06-10T13:34:30;7.65;;;7.05;;
76157;SDS011;64907;51.574;6.502;2023-06-10T13:37:01;7.90;;;7.18;;
76157;SDS011;64907;51.574;6.502;2023-06-10T13:39:28;7.68;;;7.25;;
76157;SDS011;64907;51.574;6.502;2023-06-10T13:41:54;7.63;;;6.87;;
76157;SDS011;64907;51.574;6.502;2023-06-10T13:44:19;7.53;;;7.00;;
76157;SDS011;64907;51.574;6.502;2023-06-10T13:46:50;7.87;;;7.27;;
76157;SDS011;64907;51.574;6.502;2023-06-10T13:49:22;7.60;;;6.88;;
76157;SDS011;64907;51.574;6.502;2023-06-10T13:51:48;7.53;;;6.72;;
76157;SDS011;64907;51.574;6.502;2023-06-10T13:54:13;8.00;;;7.33;;
76157;SDS011;64907;51.574;6.502;2023-06-10T13:59:27;7.75;;;7.20;;
76157;SDS011;64907;51.574;6.502;2023-06-10T14:01:52;7.45;;;6.88;;
76157;SDS011;64907;51.574;6.502;2023-06-10T14:04:17;8.27;;;7.38;;
76157;SDS011;64907;51.574;6.502;2023-06-10T14:06:42;6.90;;;6.50;;
76157;SDS011;64907;51.574;6.502;2023-06-10T14:09:08;7.70;;;7.10;;
76157;SDS011;64907;51.574;6.502;2023-06-10T14:11:34;7.22;;;6.72;;
76157;SDS011;64907;51.574;6.502;2023-06-10T14:13:59;7.13;;;6.67;;
76157;SDS011;64907;51.574;6.502;2023-06-10T14:16:25;7.65;;;6.97;;
76157;SDS011;64907;51.574;6.502;2023-06-10T14:18:51;6.15;;;5.75;;
76157;SDS011;64907;51.574;6.502;2023-06-10T14:21:16;7.37;;;6.63;;
76157;SDS011;64907;51.574;6.502;2023-06-10T14:23:41;7.15;;;6.53;;
76157;SDS011;64907;51.574;6.502;2023-06-10T14:26:10;7.95;;;7.32;;
76157;SDS011;64907;51.574;6.502;2023-06-10T14:28:50;8.10;;;7.32;;
76157;SDS011;64907;51.574;6.502;2023-06-10T14:38:58;6.93;;;6.50;;
76157;SDS011;64907;51.574;6.502;2023-06-10T14:48:59;7.45;;;6.93;;
76157;SDS011;64907;51.574;6.502;2023-06-10T14:51:26;7.00;;;6.43;;
76157;SDS011;64907;51.574;6.502;2023-06-10T14:56:22;6.85;;;6.43;;
76157;SDS011;64907;51.574;6.502;2023-06-10T14:58:48;7.40;;;6.78;;
76157;SDS011;64907;51.574;6.502;2023-06-10T15:01:21;6.73;;;6.23;;
76157;SDS011;64907;51.574;6.502;2023-06-10T15:06:43;7.30;;;6.90;;
76157;SDS011;64907;51.574;6.502;2023-06-10T15:09:08;7.78;;;7.03;;
76157;SDS011;64907;51.574;6.502;2023-06-10T15:11:37;8.43;;;6.93;;
76157;SDS011;64907;51.574;6.502;2023-06-10T15:14:05;7.53;;;7.03;;
76157;SDS011;64907;51.574;6.502;2023-06-10T15:16:31;7.25;;;6.55;;
76157;SDS011;64907;51.574;6.502;2023-06-10T15:18:56;7.65;;;7.15;;
76157;SDS011;64907;51.574;6.502;2023-06-10T15:21:22;7.47;;;6.97;;
76157;SDS011;64907;51.574;6.502;2023-06-10T15:23:49;6.43;;;6.05;;
76157;SDS011;64907;51.574;6.502;2023-06-10T15:26:15;7.22;;;6.68;;
76157;SDS011;64907;51.574;6.502;2023-06-10T15:31:12;7.05;;;6.50;;
76157;SDS011;64907;51.574;6.502;2023-06-10T15:33:41;7.32;;;6.93;;
76157;SDS011;64907;51.574;6.502;2023-06-10T15:36:25;7.43;;;6.93;;
76157;SDS011;64907;51.574;6.502;2023-06-10T15:41:26;7.03;;;6.60;;
76157;SDS011;64907;51.574;6.502;2023-06-10T15:43:57;7.90;;;7.40;;
76157;SDS011;64907;51.574;6.502;2023-06-10T15:46:35;7.60;;;6.57;;
76157;SDS011;64907;51.574;6.502;2023-06-10T15:49:03;7.55;;;6.97;;
76157;SDS011;64907;51.574;6.502;2023-06-10T15:51:41;7.63;;;6.95;;
76157;SDS011;64907;51.574;6.502;2023-06-10T15:54:06;8.00;;;7.30;;
76157;SDS011;64907;51.574;6.502;2023-06-10T15:59:04;7.35;;;6.75;;
76157;SDS011;64907;51.574;6.502;2023-06-10T16:01:31;7.50;;;6.90;;
76157;SDS011;64907;51.574;6.502;2023-06-10T16:03:58;6.55;;;6.15;;
76157;SDS011;64907;51.574;6.502;2023-06-10T16:06:24;7.47;;;6.95;;
76157;SDS011;64907;51.574;6.502;2023-06-10T16:08:50;6.72;;;6.32;;
76157;SDS011;64907;51.574;6.502;2023-06-10T16:11:15;8.10;;;7.38;;
76157;SDS011;64907;51.574;6.502;2023-06-10T16:13:41;7.53;;;6.90;;
76157;SDS011;64907;51.574;6.502;2023-06-10T16:16:08;6.65;;;6.25;;
76157;SDS011;64907;51.574;6.502;2023-06-10T16:18:34;7.57;;;6.32;;
76157;SDS011;64907;51.574;6.502;2023-06-10T16:20:59;7.43;;;6.88;;
76157;SDS011;64907;51.574;6.502;2023-06-10T16:23:25;7.35;;;6.65;;
76157;SDS011;64907;51.574;6.502;2023-06-10T16:25:52;7.80;;;7.22;;
76157;SDS011;64907;51.574;6.502;2023-06-10T16:30:54;7.78;;;7.28;;
76157;SDS011;64907;51.574;6.502;2023-06-10T16:33:19;7.28;;;6.75;;
76157;SDS011;64907;51.574;6.502;2023-06-10T16:43:26;7.43;;;6.82;;
76157;SDS011;64907;51.574;6.502;2023-06-10T16:50:57;6.97;;;6.47;;
76157;SDS011;64907;51.574;6.502;2023-06-10T16:53:24;7.00;;;6.43;;
76157;SDS011;64907;51.574;6.502;2023-06-10T16:55:53;7.80;;;7.03;;
76157;SDS011;64907;51.574;6.502;2023-06-10T16:58:27;6.75;;;6.28;;
76157;SDS011;64907;51.574;6.502;2023-06-10T17:00:56;7.30;;;6.70;;
76157;SDS011;64907;51.574;6.502;2023-06-10T17:03:24;6.82;;;6.10;;
76157;SDS011;64907;51.574;6.502;2023-06-10T17:05:50;7.80;;;7.10;;
76157;SDS011;64907;51.574;6.502;2023-06-10T17:08:17;7.63;;;7.03;;
76157;SDS011;64907;51.574;6.502;2023-06-10T17:10:43;7.80;;;7.07;;
76157;SDS011;64907;51.574;6.502;2023-06-10T17:13:08;7.00;;;6.60;;
76157;SDS011;64907;51.574;6.502;2023-06-10T17:15:33;7.10;;;6.68;;
76157;SDS011;64907;51.574;6.502;2023-06-10T17:17:59;7.35;;;6.63;;
76157;SDS011;64907;51.574;6.502;2023-06-10T17:20:24;9.07;;;6.95;;
76157;SDS011;64907;51.574;6.502;2023-06-10T17:22:49;9.85;;;6.97;;
76157;SDS011;64907;51.574;6.502;2023-06-10T17:25:15;7.70;;;7.00;;
76157;SDS011;64907;51.574;6.502;2023-06-10T17:27:41;7.50;;;6.90;;